Time;durP1;ratioP1;P1;durP2;ratioP2;P2;SDS_P1;SDS_P2;PMS_P1;PMS_P2;Temp;Humidity;BMP_temperature;BMP_pressure;BME280_temperature;BME280_humidity;BME280_pressure;Samples;Min_cycle;Max_cycle;Signal;HPM_P1;HPM_P2
2023/06/20 00:05:06;;;;;;;3.50;1.60;;;;;;;22.19;100.00;98097.06;15278519;19;20375;-54
2023/06/20 00:10:30;;;;;;;3.28;1.50;;;;;;;22.12;100.00;98100.81;15274163;19;20013;-49
2023/06/20 00:15:58;;;;;;;1.75;1.50;;;;;;;22.06;100.00;98101.78;15267073;19;20446;-47
2023/06/20 00:21:25;;;;;;;1.80;1.50;;;;;;;22.00;100.00;98108.25;15274809;19;20040;-53
2023/06/20 00:26:50;;;;;;;2.20;1.40;;;;;;;21.97;100.00;98100.50;15265194;19;20163;-49
2023/06/20 00:32:24;;;;;;;2.42;1.70;;;;;;;21.91;100.00;98096.81;14759549;19;10000924;-54
2023/06/20 00:37:49;;;;;;;1.50;1.40;;;;;;;21.86;100.00;98083.84;15272113;19;20039;-47
2023/06/20 00:43:13;;;;;;;1.52;1.40;;;;;;;21.78;100.00;98089.72;15276200;19;20018;-52
2023/06/20 00:48:40;;;;;;;1.63;1.50;;;;;;;21.73;100.00;98092.34;15266595;19;20031;-47
2023/06/20 00:54:06;;;;;;;2.25;1.60;;;;;;;21.68;100.00;98090.34;15274628;19;20070;-46
2023/06/20 00:59:31;;;;;;;1.88;1.60;;;;;;;21.64;100.00;98091.88;15268401;19;20046;-45
2023/06/20 01:04:58;;;;;;;1.70;1.60;;;;;;;21.56;100.00;98092.22;15273123;19;20021;-54
2023/06/20 01:10:28;;;;;;;1.98;1.60;;;;;;;21.47;100.00;98088.19;15267646;19;20093;-46
2023/06/20 01:16:07;;;;;;;2.70;1.48;;;;;;;21.35;100.00;98088.19;15270130;19;20014;-47
2023/06/20 01:21:39;;;;;;;1.73;1.55;;;;;;;21.25;100.00;98078.69;15264707;19;20019;-46
2023/06/20 01:27:12;;;;;;;1.70;1.60;;;;;;;21.20;100.00;98084.06;15263587;19;20438;-49
2023/06/20 01:32:46;;;;;;;1.75;1.65;;;;;;;21.16;100.00;98085.59;15265884;19;20006;-47
2023/06/20 01:38:12;;;;;;;3.33;1.80;;;;;;;21.13;100.00;98091.53;15265887;19;20434;-46
2023/06/20 01:43:43;;;;;;;3.05;1.83;;;;;;;21.06;100.00;98082.63;15271143;19;20019;-49
2023/06/20 01:49:09;;;;;;;3.92;1.90;;;;;;;20.99;100.00;98079.19;15265768;19;20066;-52
2023/06/20 01:54:38;;;;;;;2.13;1.70;;;;;;;20.93;100.00;98079.03;15267528;19;20018;-47
2023/06/20 02:00:11;;;;;;;3.20;1.70;;;;;;;20.91;100.00;98088.59;15264656;19;20432;-57
2023/06/20 02:05:39;;;;;;;2.00;1.80;;;;;;;20.89;100.00;98082.50;15275024;19;20026;-49
2023/06/20 02:11:05;;;;;;;2.15;1.73;;;;;;;20.88;100.00;98089.03;15235476;19;20078;-45
2023/06/20 02:16:34;;;;;;;1.83;1.58;;;;;;;20.85;100.00;98076.66;15277958;19;20026;-50
2023/06/20 02:22:00;;;;;;;1.77;1.63;;;;;;;20.83;100.00;98095.22;15277511;19;20014;-55
2023/06/20 02:27:29;;;;;;;2.90;1.80;;;;;;;20.77;100.00;98086.06;15275630;19;20023;-48
2023/06/20 02:33:05;;;;;;;2.75;1.95;;;;;;;20.64;100.00;98087.06;15280380;19;20106;-48
2023/06/20 02:38:31;;;;;;;1.95;1.73;;;;;;;20.46;100.00;98079.75;15270463;19;20409;-51
2023/06/20 02:43:56;;;;;;;2.72;2.05;;;;;;;20.37;100.00;98069.41;15287535;19;20028;-49
2023/06/20 02:49:36;;;;;;;2.13;1.92;;;;;;;20.37;100.00;98074.88;15275454;19;20018;-47
2023/06/20 02:55:09;;;;;;;2.20;2.00;;;;;;;20.32;100.00;98068.19;15273901;19;21078;-43
2023/06/20 03:00:36;;;;;;;3.28;2.00;;;;;;;20.30;100.00;98067.59;15282567;19;20018;-45
2023/06/20 03:06:07;;;;;;;2.22;1.50;;;;;;;20.34;100.00;98076.19;15282990;19;20010;-47
2023/06/20 03:11:34;;;;;;;2.33;1.92;;;;;;;20.40;100.00;98088.91;15271423;19;20102;-43
2023/06/20 03:16:59;;;;;;;1.88;1.70;;;;;;;20.42;100.00;98085.94;15272408;19;20014;-47
2023/06/20 03:22:26;;;;;;;2.05;1.73;;;;;;;20.49;100.00;98097.63;15276336;19;20018;-44
2023/06/20 03:27:53;;;;;;;2.03;1.83;;;;;;;20.55;100.00;98093.94;15272272;19;20015;-48
2023/06/20 03:33:28;;;;;;;2.83;1.90;;;;;;;20.62;100.00;98094.69;15280753;19;20074;-48
2023/06/20 03:38:56;;;;;;;;;;;;;;;20.66;100.00;98107.88;15278416;19;20027;-44
2023/06/20 03:44:20;;;;;;;2.67;1.58;;;;;;;20.68;100.00;98103.88;15286054;19;19964;-48
2023/06/20 03:49:45;;;;;;;1.70;1.60;;;;;;;20.72;100.00;98112.44;15275923;19;20015;-48
2023/06/20 03:55:13;;;;;;;2.78;1.90;;;;;;;20.72;100.00;98115.19;15278920;19;20098;-47
2023/06/20 04:00:38;;;;;;;3.78;1.92;;;;;;;20.73;100.00;98103.16;15272080;19;20370;-50
2023/06/20 04:06:02;;;;;;;4.15;1.80;;;;;;;20.78;100.00;98104.16;15276182;19;20027;-50
2023/06/20 04:11:31;;;;;;;1.83;1.70;;;;;;;20.86;100.00;98111.19;15274635;19;20396;-46
2023/06/20 04:16:57;;;;;;;2.13;1.92;;;;;;;20.94;100.00;98120.94;15279145;19;20921;-47
2023/06/20 04:22:26;;;;;;;1.85;1.73;;;;;;;21.01;100.00;98123.56;15284477;19;20011;-47
2023/06/20 04:27:56;;;;;;;1.77;1.67;;;;;;;21.07;100.00;98125.38;15278808;19;20014;-48
2023/06/20 04:33:46;;;;;;;2.38;1.85;;;;;;;21.15;100.00;98133.22;15270259;19;20011;-48
2023/06/20 04:39:15;;;;;;;2.20;2.00;;;;;;;21.19;100.00;98125.38;15266645;19;20025;-48
2023/06/20 04:44:44;;;;;;;2.65;2.00;;;;;;;21.24;100.00;98129.06;15272124;19;20014;-50
2023/06/20 04:50:10;;;;;;;2.75;2.00;;;;;;;21.30;100.00;98135.50;15271858;19;20015;-47
2023/06/20 04:55:38;;;;;;;2.90;1.95;;;;;;;21.34;100.00;98141.34;15273818;19;20621;-49
2023/06/20 05:01:06;;;;;;;2.03;1.80;;;;;;;21.34;100.00;98133.13;15275831;19;20086;-46
2023/06/20 05:06:30;;;;;;;4.38;2.08;;;;;;;21.29;100.00;98163.16;15271820;19;20025;-51
2023/06/20 05:11:55;;;;;;;5.60;2.35;;;;;;;21.19;100.00;98182.91;15272211;19;20014;-50
2023/06/20 05:17:25;;;;;;;2.88;2.50;;;;;;;21.06;100.00;98187.53;15276830;19;20042;-45
2023/06/20 05:22:50;;;;;;;3.25;2.67;;;;;;;20.97;100.00;98199.91;15277351;19;20029;-48
2023/06/20 05:28:14;;;;;;;3.00;2.70;;;;;;;20.90;100.00;98210.13;15273956;19;20019;-44
2023/06/20 05:33:48;;;;;;;5.35;3.20;;;;;;;20.81;100.00;98209.63;15270112;19;20078;-44
2023/06/20 05:39:13;;;;;;;6.13;3.35;;;;;;;20.68;100.00;98217.97;15265723;19;20025;-46
2023/06/20 05:44:38;;;;;;;5.75;3.28;;;;;;;20.57;100.00;98223.19;15277755;19;20022;-46
2023/06/20 05:50:06;;;;;;;5.88;3.42;;;;;;;20.48;100.00;98241.00;15267247;19;20026;-45
2023/06/20 05:55:31;;;;;;;4.47;3.58;;;;;;;20.33;100.00;98250.44;15271445;19;20424;-47
2023/06/20 06:00:56;;;;;;;5.55;3.70;;;;;;;20.23;100.00;98276.63;15269891;19;20018;-45
2023/06/20 06:06:24;;;;;;;5.15;3.90;;;;;;;20.05;100.00;98283.78;15273761;19;20094;-44
2023/06/20 06:11:49;;;;;;;4.72;3.58;;;;;;;19.93;100.00;98277.38;15266084;19;20014;-45
2023/06/20 06:17:14;;;;;;;4.15;3.75;;;;;;;19.76;100.00;98274.34;15265726;19;20018;-47
2023/06/20 06:22:41;;;;;;;4.63;3.80;;;;;;;19.60;100.00;98287.53;15274463;19;20025;-44
2023/06/20 06:28:06;;;;;;;3.95;3.15;;;;;;;19.50;100.00;98288.03;15270762;19;20021;-45
2023/06/20 06:33:31;;;;;;;4.07;3.20;;;;;;;19.50;100.00;98306.31;15264672;19;20023;-47
2023/06/20 06:38:58;;;;;;;5.13;3.00;;;;;;;19.54;100.00;98291.97;15274809;19;20279;-47
2023/06/20 06:44:26;;;;;;;3.85;3.03;;;;;;;19.61;100.00;98286.47;15272826;19;20018;-46
2023/06/20 06:49:52;;;;;;;3.25;2.90;;;;;;;19.67;100.00;98291.06;15266875;19;20022;-45
2023/06/20 06:55:19;;;;;;;3.47;3.17;;;;;;;19.74;100.00;98301.06;15285188;19;20347;-45
2023/06/20 07:00:44;;;;;;;2.80;2.60;;;;;;;19.78;100.00;98303.13;15283134;19;20017;-46
2023/06/20 07:06:09;;;;;;;2.97;2.70;;;;;;;19.83;100.00;98327.06;15286734;19;20117;-47
2023/06/20 07:11:36;;;;;;;3.20;2.70;;;;;;;19.81;100.00;98340.16;15279741;19;20018;-49
2023/06/20 07:17:01;;;;;;;2.70;2.50;;;;;;;19.83;100.00;98306.03;15282641;19;20014;-47
2023/06/20 07:22:25;;;;;;;2.50;2.30;;;;;;;19.90;100.00;98319.69;15286550;19;20022;-48
2023/06/20 07:28:00;;;;;;;2.92;2.63;;;;;;;20.02;100.00;98319.78;15286016;19;20562;-50
2023/06/20 07:33:31;;;;;;;2.58;2.30;;;;;;;20.16;100.00;98347.84;15283258;19;20026;-48
2023/06/20 07:38:56;;;;;;;2.80;2.50;;;;;;;20.35;100.00;98312.28;15287970;19;20025;-52
2023/06/20 07:44:23;;;;;;;3.58;2.75;;;;;;;20.55;100.00;98304.69;15281574;19;20549;-49
2023/06/20 07:49:48;;;;;;;2.90;2.50;;;;;;;20.63;100.00;98278.91;15277091;19;20014;-49
2023/06/20 07:55:13;;;;;;;2.80;2.60;;;;;;;20.69;100.00;98256.09;15284824;19;20014;-44
2023/06/20 08:00:51;;;;;;;2.90;2.38;;;;;;;20.90;100.00;98241.06;15278964;19;20364;-48
2023/06/20 08:06:15;;;;;;;2.67;2.47;;;;;;;21.18;100.00;98250.56;15284389;19;20019;-52
2023/06/20 08:11:40;;;;;;;3.47;2.40;;;;;;;21.47;100.00;98247.16;15280465;19;20025;-49
2023/06/20 08:17:07;;;;;;;2.60;2.38;;;;;;;21.79;100.00;98241.34;15274481;19;20025;-45
2023/06/20 08:22:33;;;;;;;3.08;2.40;;;;;;;21.95;100.00;98209.63;15283379;19;20010;-44
2023/06/20 08:27:57;;;;;;;3.88;2.17;;;;;;;22.11;100.00;98195.16;15279035;19;20025;-49
2023/06/20 08:33:41;;;;;;;2.97;1.90;;;;;;;22.30;100.00;98205.97;15279168;19;20029;-47
2023/06/20 08:39:06;;;;;;;4.15;1.80;;;;;;;22.51;100.00;98198.19;15274686;19;20030;-46
2023/06/20 08:44:31;;;;;;;2.90;1.90;;;;;;;22.65;100.00;98198.72;15281038;19;20481;-46
2023/06/20 08:50:11;;;;;;;1.90;1.80;;;;;;;22.72;100.00;98192.00;15272640;19;20022;-47
2023/06/20 08:55:37;;;;;;;2.13;1.92;;;;;;;22.86;100.00;98188.94;15280652;19;20082;-49
2023/06/20 09:01:02;;;;;;;1.98;1.77;;;;;;;22.98;100.00;98186.97;15276172;19;20010;-48
2023/06/20 09:06:37;;;;;;;1.90;1.80;;;;;;;23.05;100.00;98195.88;15276236;19;20017;-44
2023/06/20 09:12:03;;;;;;;3.08;2.00;;;;;;;23.25;100.00;98202.81;15276714;19;20356;-50
2023/06/20 09:17:29;;;;;;;2.50;1.85;;;;;;;23.30;100.00;98197.41;15277511;19;20022;-45
2023/06/20 09:22:56;;;;;;;2.30;2.08;;;;;;;23.44;100.00;98199.84;15272496;19;20020;-48
2023/06/20 09:28:21;;;;;;;4.18;1.92;;;;;;;23.50;100.00;98196.06;15274440;19;20010;-45
2023/06/20 09:33:52;;;;;;;2.65;2.20;;;;;;;23.58;100.00;98195.63;15274474;19;20022;-46
2023/06/20 09:39:20;;;;;;;;;;;;;;;23.73;100.00;98174.94;15271265;19;20053;-49
2023/06/20 09:44:45;;;;;;;3.08;2.08;;;;;;;24.06;100.00;98179.56;15279261;19;19923;-44
2023/06/20 09:50:13;;;;;;;2.00;1.80;;;;;;;24.28;100.00;98184.22;15269462;19;20017;-47
2023/06/20 09:55:42;;;;;;;3.13;2.20;;;;;;;24.38;100.00;98183.53;15271120;19;20015;-44
2023/06/20 10:01:13;;;;;;;2.42;2.22;;;;;;;24.57;100.00;98176.56;15274802;19;20057;-51
2023/06/20 10:06:38;;;;;;;;;;;;;;;24.75;100.00;98160.81;15271180;19;20463;-45
2023/06/20 10:12:10;;;;;;;3.05;1.83;;;;;;;25.01;100.00;98161.03;15272480;19;20178;-50
2023/06/20 10:17:42;;;;;;;2.58;1.88;;;;;;;25.27;100.00;98158.50;15272723;19;20550;-47
2023/06/20 10:23:10;;;;;;;3.25;2.00;;;;;;;25.40;100.00;98152.53;15271168;19;20025;-49
2023/06/20 10:28:40;;;;;;;4.30;1.80;;;;;;;25.51;100.00;98139.69;15285179;19;20018;-53
2023/06/20 10:34:11;;;;;;;2.63;2.10;;;;;;;25.65;100.00;98121.53;15285718;19;20504;-49
2023/06/20 10:39:39;;;;;;;2.80;1.85;;;;;;;25.81;100.00;98116.91;15282473;19;20018;-45
2023/06/20 10:45:35;;;;;;;3.00;1.80;;;;;;;26.14;100.00;98117.66;15291092;19;20053;-49
2023/06/20 10:51:02;;;;;;;3.15;1.70;;;;;;;26.44;100.00;98118.00;15283341;19;20820;-48
2023/06/20 10:56:35;;;;;;;2.35;1.70;;;;;;;26.63;100.00;98103.66;15282929;19;20014;-47
2023/06/20 11:02:06;;;;;;;3.53;1.60;;;;;;;26.69;100.00;98108.91;15288331;19;20282;-51
2023/06/20 11:07:30;;;;;;;2.20;1.70;;;;;;;26.63;100.00;98103.66;15283322;19;20046;-50
2023/06/20 11:13:09;;;;;;;2.55;1.50;;;;;;;26.77;100.00;98083.50;15282096;19;20435;-48
2023/06/20 11:18:37;;;;;;;1.80;1.70;;;;;;;26.89;100.00;98083.25;15286139;19;20408;-51
2023/06/20 11:24:02;;;;;;;2.00;1.80;;;;;;;27.04;100.00;98076.06;15288193;19;20828;-45
2023/06/20 11:29:27;;;;;;;4.43;1.90;;;;;;;27.41;100.00;98069.34;15279874;19;20038;-49
2023/06/20 11:35:06;;;;;;;2.97;1.60;;;;;;;27.36;100.00;98072.97;15276781;19;20011;-45
2023/06/20 11:40:31;;;;;;;2.05;1.85;;;;;;;27.18;100.00;98073.56;15276724;19;20039;-48
2023/06/20 11:45:55;;;;;;;4.40;1.77;;;;;;;27.06;100.00;98079.38;15278721;19;20359;-47
2023/06/20 11:51:24;;;;;;;1.70;1.60;;;;;;;26.82;100.00;98070.81;15278555;19;20029;-48
2023/06/20 11:56:49;;;;;;;4.20;1.48;;;;;;;26.61;100.00;98056.97;15276192;19;20096;-46
2023/06/20 12:02:15;;;;;;;8.10;2.13;;;;;;;26.28;100.00;98070.22;15283795;19;20471;-49
2023/06/20 12:07:56;;;;;;;77.80;11.63;;;;;;;24.37;100.00;98099.28;15276267;19;20018;-53
2023/06/20 12:13:21;;;;;;;;;;;;;;;23.31;100.00;98118.53;15278451;19;20018;-48
2023/06/20 12:18:45;;;;;;;24.83;16.90;;;;;;;22.73;100.00;98182.69;15284544;19;19925;-49
2023/06/20 12:24:13;;;;;;;18.88;15.00;;;;;;;22.60;100.00;98235.97;15282437;19;20259;-50
2023/06/20 12:29:40;;;;;;;20.98;15.85;;;;;;;22.71;100.00;98313.91;15277623;19;20018;-54
2023/06/20 12:35:12;;;;;;;4.60;3.80;;;;;;;23.00;100.00;98187.53;15272986;19;20029;-55
2023/06/20 12:40:40;;;;;;;5.85;4.68;;;;;;;23.37;100.00;98200.81;15274548;19;20021;-52
2023/06/20 12:46:04;;;;;;;7.72;6.95;;;;;;;23.67;100.00;98240.91;15273714;19;20015;-51
2023/06/20 12:51:29;;;;;;;6.32;5.70;;;;;;;24.08;100.00;98234.34;15272792;19;20017;-51
2023/06/20 12:56:56;;;;;;;5.35;4.30;;;;;;;24.50;100.00;98219.16;15274441;19;20014;-53
2023/06/20 13:02:23;;;;;;;3.83;3.42;;;;;;;24.88;100.00;98193.44;15277630;19;20477;-48
2023/06/20 13:07:47;;;;;;;4.75;3.20;;;;;;;25.19;100.00;98143.25;15271514;19;20045;-54
2023/06/20 13:13:15;;;;;;;4.50;2.75;;;;;;;25.52;100.00;98124.75;15277865;19;20022;-47
2023/06/20 13:18:39;;;;;;;4.45;2.10;;;;;;;25.93;100.00;98102.09;15281537;19;20014;-49
2023/06/20 13:24:06;;;;;;;4.72;2.40;;;;;;;26.11;100.00;98093.34;15277215;19;20090;-48
2023/06/20 13:29:33;;;;;;;4.43;1.88;;;;;;;26.36;100.00;98077.94;15269563;19;20031;-48
2023/06/20 13:35:07;;;;;;;3.38;1.88;;;;;;;26.67;100.00;98077.16;15273532;19;20081;-52
2023/06/20 13:40:32;;;;;;;2.72;1.45;;;;;;;27.09;100.00;98076.06;15267881;19;20026;-50
2023/06/20 13:45:59;;;;;;;2.55;1.30;;;;;;;27.45;100.00;98053.88;15272827;19;20018;-49
2023/06/20 13:51:24;;;;;;;3.55;1.40;;;;;;;27.68;100.00;98046.91;15272124;19;20912;-49
2023/06/20 13:56:49;;;;;;;3.17;1.20;;;;;;;27.84;100.00;98027.44;15271094;19;20025;-54
2023/06/20 14:02:17;;;;;;;1.40;0.95;;;;;;;27.97;100.00;98026.81;15272871;19;20014;-53
2023/06/20 14:07:42;;;;;;;1.77;1.10;;;;;;;28.32;100.00;98026.06;15267970;19;20030;-50
2023/06/20 14:13:09;;;;;;;1.20;1.10;;;;;;;28.54;100.00;98007.06;15265392;19;20086;-51
2023/06/20 14:18:36;;;;;;;1.55;1.10;;;;;;;28.81;100.00;98013.28;15269161;19;20014;-52
2023/06/20 14:24:02;;;;;;;1.00;0.90;;;;;;;28.97;100.00;98005.63;15269497;19;20360;-53
2023/06/20 14:29:26;;;;;;;4.57;1.05;;;;;;;29.12;100.00;98005.44;15273242;19;20700;-49
2023/06/20 14:35:00;;;;;;;1.55;1.10;;;;;;;29.19;100.00;97997.63;15268642;19;20098;-53
2023/06/20 14:40:25;;;;;;;2.88;1.00;;;;;;;29.17;100.00;97999.84;15271482;19;20024;-50
2023/06/20 14:45:50;;;;;;;2.15;1.00;;;;;;;29.14;100.00;97997.66;15264700;19;20078;-49
2023/06/20 14:51:18;;;;;;;1.33;1.10;;;;;;;29.19;100.00;97986.53;15272189;19;20050;-48
2023/06/20 14:56:42;;;;;;;1.40;1.00;;;;;;;29.72;100.00;97990.34;15268160;19;20112;-53
2023/06/20 15:02:08;;;;;;;1.52;1.00;;;;;;;30.39;100.00;97978.28;15265403;19;20085;-50
2023/06/20 15:07:35;;;;;;;1.48;1.00;;;;;;;30.98;100.00;97969.50;15261058;19;21170;-52
2023/06/20 15:13:00;;;;;;;2.60;1.10;;;;;;;31.67;100.00;97970.63;15266534;19;20131;-51
2023/06/20 15:18:24;;;;;;;2.70;0.98;;;;;;;32.22;100.00;97963.31;15266694;19;20022;-50
2023/06/20 15:23:52;;;;;;;1.38;1.10;;;;;;;32.44;100.00;97954.13;15277325;19;20082;-54
2023/06/20 15:29:19;;;;;;;1.67;1.00;;;;;;;32.76;100.00;97956.97;15278837;19;20021;-51
2023/06/20 15:34:50;;;;;;;1.08;0.98;;;;;;;33.14;100.00;97948.97;15274238;19;20018;-55
2023/06/20 15:40:18;;;;;;;1.55;1.00;;;;;;;33.32;100.00;97943.44;15277620;19;20098;-49
2023/06/20 15:45:44;;;;;;;1.20;1.00;;;;;;;33.37;100.00;97948.09;15273870;19;20022;-51
2023/06/20 15:51:08;;;;;;;2.08;1.00;;;;;;;33.41;100.00;97933.16;15273667;19;20007;-53
2023/06/20 15:56:35;;;;;;;1.45;1.00;;;;;;;33.66;100.00;97944.69;15271304;19;20025;-50
2023/06/20 16:02:00;;;;;;;3.08;1.05;;;;;;;33.93;100.00;97938.03;15276847;19;20362;-52
2023/06/20 16:07:25;;;;;;;2.10;0.90;;;;;;;34.08;100.00;97933.91;15271558;19;20876;-51
2023/06/20 16:12:53;;;;;;;5.40;1.10;;;;;;;34.01;100.00;97933.59;15274484;19;20473;-52
2023/06/20 16:18:18;;;;;;;3.42;1.00;;;;;;;33.88;100.00;97931.78;15271981;19;20466;-50
2023/06/20 16:23:43;;;;;;;4.07;1.00;;;;;;;33.98;100.00;97930.63;15268993;19;20010;-54
2023/06/20 16:29:11;;;;;;;3.03;1.00;;;;;;;34.08;100.00;97930.31;15273420;19;20041;-50
2023/06/20 16:34:35;;;;;;;2.08;1.10;;;;;;;34.10;100.00;97926.00;15272422;19;20459;-48
2023/06/20 16:40:01;;;;;;;0.88;0.80;;;;;;;34.00;100.00;97928.31;15275123;19;20505;-47
2023/06/20 16:45:29;;;;;;;1.65;0.90;;;;;;;34.00;98.98;97919.91;15270400;19;20006;-48
2023/06/20 16:50:54;;;;;;;3.05;1.10;;;;;;;34.11;100.00;97916.47;15276676;19;20015;-48
2023/06/20 16:56:18;;;;;;;1.08;0.82;;;;;;;34.05;100.00;97909.41;15262600;19;20373;-51
2023/06/20 17:01:46;;;;;;;1.65;0.95;;;;;;;33.82;100.00;97908.72;15275396;19;20021;-52
2023/06/20 17:07:10;;;;;;;1.25;0.98;;;;;;;33.63;100.00;97900.66;15269708;19;20406;-50
2023/06/20 17:12:35;;;;;;;1.70;0.90;;;;;;;33.74;100.00;97901.97;15275905;19;20022;-44
2023/06/20 17:18:02;;;;;;;1.45;1.00;;;;;;;33.77;100.00;97892.13;15268156;19;20006;-49
2023/06/20 17:23:27;;;;;;;2.00;1.00;;;;;;;33.79;100.00;97887.03;15276404;19;20058;-48
2023/06/20 17:28:51;;;;;;;1.65;1.00;;;;;;;33.65;100.00;97887.19;15272506;19;20020;-53
2023/06/20 17:34:26;;;;;;;1.75;0.88;;;;;;;33.53;100.00;97884.22;15264575;19;20021;-55
2023/06/20 17:39:50;;;;;;;2.95;1.10;;;;;;;33.40;100.00;97883.22;15272384;19;20500;-53
2023/06/20 17:45:17;;;;;;;1.65;1.05;;;;;;;33.25;100.00;97884.47;15269727;19;20471;-55
2023/06/20 17:50:44;;;;;;;1.88;1.10;;;;;;;32.95;100.00;97876.66;15266033;19;20021;-54
2023/06/20 17:56:09;;;;;;;1.38;0.90;;;;;;;32.72;100.00;97875.91;15259868;19;20014;-52
2023/06/20 18:01:34;;;;;;;2.13;1.20;;;;;;;32.47;100.00;97871.81;15272483;19;20006;-48
2023/06/20 18:07:01;;;;;;;1.48;1.00;;;;;;;32.17;100.00;97877.03;15266471;19;20026;-52
2023/06/20 18:12:26;;;;;;;1.85;1.10;;;;;;;31.99;100.00;97884.44;15259098;19;20022;-52
2023/06/20 18:17:51;;;;;;;1.52;1.00;;;;;;;31.80;100.00;97885.47;15249549;19;20015;-55
2023/06/20 18:23:18;;;;;;;2.47;1.08;;;;;;;31.54;100.00;97887.94;15254032;19;20555;-55
2023/06/20 18:28:43;;;;;;;1.75;1.10;;;;;;;31.18;100.00;97878.44;15249851;19;20034;-54
2023/06/20 18:34:08;;;;;;;1.65;1.20;;;;;;;30.63;100.00;97880.06;15254373;19;20015;-55
2023/06/20 18:39:35;;;;;;;2.50;1.10;;;;;;;30.25;100.00;97888.50;15259707;19;20014;-52
2023/06/20 18:44:59;;;;;;;5.35;1.25;;;;;;;29.65;100.00;97890.75;15260617;19;20009;-57
2023/06/20 18:50:25;;;;;;;1.38;1.27;;;;;;;29.29;100.00;97895.97;15274206;19;20014;-53
2023/06/20 18:55:52;;;;;;;1.73;1.20;;;;;;;28.87;100.00;97899.22;15262427;19;20106;-48
2023/06/20 19:01:17;;;;;;;1.90;1.35;;;;;;;28.56;100.00;97907.84;15268414;19;20078;-47
2023/06/20 19:06:42;;;;;;;2.40;1.50;;;;;;;28.14;100.00;97903.81;15264233;19;20015;-48
2023/06/20 19:12:10;;;;;;;1.90;1.58;;;;;;;27.82;100.00;97914.25;15269399;19;20422;-49
2023/06/20 19:17:34;;;;;;;2.63;1.50;;;;;;;27.57;100.00;97906.94;15264101;19;20019;-57
2023/06/20 19:23:01;;;;;;;3.05;1.60;;;;;;;27.27;100.00;97905.13;15275465;19;20014;-54
2023/06/20 19:28:29;;;;;;;2.83;1.50;;;;;;;26.99;100.00;97913.78;15260340;19;20033;-48
2023/06/20 19:33:55;;;;;;;3.10;1.70;;;;;;;26.76;100.00;97909.69;15259012;19;20697;-46
2023/06/20 19:39:19;;;;;;;2.45;1.60;;;;;;;26.55;100.00;97906.97;15270533;19;20022;-46
2023/06/20 19:44:47;;;;;;;2.65;1.50;;;;;;;26.35;100.00;97918.88;15267445;19;20011;-50
2023/06/20 19:50:12;;;;;;;4.35;1.52;;;;;;;26.15;100.00;97906.75;15274108;19;20018;-48
2023/06/20 19:55:37;;;;;;;3.05;1.75;;;;;;;25.98;100.00;97915.25;15265450;19;20010;-50
2023/06/20 20:01:05;;;;;;;2.03;1.63;;;;;;;25.85;100.00;97908.34;15269201;19;20029;-51
2023/06/20 20:06:29;;;;;;;3.28;1.80;;;;;;;25.70;100.00;97922.09;15261998;19;20021;-49
2023/06/20 20:11:54;;;;;;;2.83;1.75;;;;;;;25.51;100.00;97914.34;15269610;19;20014;-49
2023/06/20 20:17:21;;;;;;;2.28;1.75;;;;;;;25.41;100.00;97919.81;15243839;19;20007;-50
2023/06/20 20:22:46;;;;;;;2.13;1.70;;;;;;;25.35;100.00;97926.38;15269126;19;20086;-49
2023/06/20 20:28:12;;;;;;;2.88;1.90;;;;;;;25.20;100.00;97925.25;15264170;19;20499;-51
2023/06/20 20:33:40;;;;;;;2.88;1.80;;;;;;;25.04;100.00;97916.09;15260744;19;20015;-49
2023/06/20 20:39:04;;;;;;;2.10;1.90;;;;;;;24.89;100.00;97918.75;15260934;19;20471;-49
2023/06/20 20:44:33;;;;;;;2.63;1.90;;;;;;;24.72;100.00;97907.91;15264298;19;20355;-50
2023/06/20 20:50:01;;;;;;;2.20;2.00;;;;;;;24.64;100.00;97900.13;15268675;19;20007;-49
2023/06/20 20:55:26;;;;;;;2.45;2.10;;;;;;;24.58;100.00;97911.09;15262204;19;20015;-50
2023/06/20 21:00:50;;;;;;;2.60;2.10;;;;;;;24.53;100.00;97900.03;15267462;19;20018;-49
2023/06/20 21:06:17;;;;;;;2.20;2.00;;;;;;;24.50;100.00;97906.09;15258937;19;20809;-47
2023/06/20 21:11:43;;;;;;;3.80;1.90;;;;;;;24.50;100.00;97905.25;15259968;19;20014;-49
2023/06/20 21:17:10;;;;;;;3.00;2.05;;;;;;;24.49;100.00;97909.09;15263492;19;20019;-46
2023/06/20 21:22:37;;;;;;;2.20;2.00;;;;;;;24.47;100.00;97912.13;15267122;19;20006;-49
2023/06/20 21:28:02;;;;;;;2.20;1.90;;;;;;;24.46;100.00;97913.22;15263102;19;20022;-45
2023/06/20 21:33:33;;;;;;;2.88;1.88;;;;;;;24.45;100.00;97922.56;15261940;19;20022;-46
2023/06/20 21:39:00;;;;;;;2.53;2.30;;;;;;;24.43;100.00;97905.47;15255934;19;20021;-47
2023/06/20 21:44:25;;;;;;;2.30;2.10;;;;;;;24.42;100.00;97923.09;15254987;19;20018;-49
2023/06/20 21:49:50;;;;;;;3.13;2.00;;;;;;;24.41;100.00;97918.69;15261019;19;20037;-47
2023/06/20 21:55:18;;;;;;;2.10;1.90;;;;;;;24.37;100.00;97898.28;15259812;19;20020;-47
2023/06/20 22:00:43;;;;;;;2.42;1.80;;;;;;;24.37;100.00;97901.88;15262611;19;20018;-46
2023/06/20 22:06:07;;;;;;;3.42;2.20;;;;;;;24.34;100.00;97907.06;15258842;19;20011;-45
2023/06/20 22:11:34;;;;;;;2.85;2.15;;;;;;;24.33;100.00;97900.75;15256844;19;20082;-49
2023/06/20 22:17:00;;;;;;;2.30;2.10;;;;;;;24.29;100.00;97892.16;15251097;19;20027;-50
2023/06/20 22:22:25;;;;;;;3.97;2.08;;;;;;;24.27;100.00;97885.28;15272278;19;20020;-47
2023/06/20 22:27:52;;;;;;;2.55;2.35;;;;;;;24.20;100.00;97891.00;15275854;19;20082;-49
2023/06/20 22:33:18;;;;;;;2.47;1.92;;;;;;;24.17;100.00;97902.53;15274820;19;20024;-51
2023/06/20 22:38:42;;;;;;;2.83;2.50;;;;;;;24.12;100.00;97888.75;15276020;19;20050;-48
2023/06/20 22:44:09;;;;;;;3.60;2.28;;;;;;;24.02;100.00;97891.41;15268822;19;20011;-49
2023/06/20 22:49:35;;;;;;;3.72;2.58;;;;;;;23.93;100.00;97902.84;15270410;19;20024;-51
2023/06/20 22:55:00;;;;;;;2.42;2.22;;;;;;;23.88;100.00;97902.81;15272222;19;20018;-47
2023/06/20 23:00:28;;;;;;;2.70;2.40;;;;;;;23.76;100.00;97965.41;15275313;19;20093;-49
2023/06/20 23:05:53;;;;;;;3.63;2.63;;;;;;;23.58;100.00;97948.16;15268806;19;20021;-46
2023/06/20 23:11:19;;;;;;;3.85;3.20;;;;;;;23.48;100.00;97945.31;15274758;19;20086;-49
2023/06/20 23:16:46;;;;;;;3.95;2.90;;;;;;;23.33;100.00;98010.03;15263307;19;20027;-47
2023/06/20 23:22:12;;;;;;;5.00;3.40;;;;;;;23.06;100.00;98071.16;15266155;19;20308;-45
2023/06/20 23:27:37;;;;;;;6.82;3.40;;;;;;;22.83;100.00;98076.84;15270202;19;20835;-46
2023/06/20 23:33:07;;;;;;;7.43;3.05;;;;;;;22.78;100.00;98094.06;15264960;19;20357;-49
2023/06/20 23:38:32;;;;;;;4.30;3.30;;;;;;;22.62;100.00;98091.03;15263505;19;20021;-50
2023/06/20 23:43:56;;;;;;;5.85;3.10;;;;;;;22.52;100.00;98090.06;15269701;19;20021;-48
2023/06/20 23:49:23;;;;;;;4.30;3.03;;;;;;;22.51;100.00;98099.38;15266253;19;20018;-46
2023/06/20 23:54:52;;;;;;;8.13;3.40;;;;;;;22.49;100.00;98091.34;15262683;19;20010;-47
